Time;durP1;ratioP1;P1;durP2;ratioP2;P2;SDS_P1;SDS_P2;PMS_P1;PMS_P2;Temp;Humidity;BMP_temperature;BMP_pressure;BME280_temperature;BME280_humidity;BME280_pressure;Samples;Min_cycle;Max_cycle;Signal;HPM_P1;HPM_P2
2022/05/10 00:00:53;;;;;;;;;;;;;;;14.09;100.00;101839.75;5054474;28;19913;-78
2022/05/10 00:03:21;;;;;;;;;;;;;;;14.08;100.00;101836.22;5054366;28;19921;-77
2022/05/10 00:05:46;;;;;;;;;;;;;;;14.09;100.00;101837.13;5054572;28;20326;-78
2022/05/10 00:08:13;;;;;;;;;;;;;;;14.12;100.00;101835.50;5055045;28;19917;-78
2022/05/10 00:10:39;;;;;;;;;;;;;;;14.17;100.00;101825.09;5070329;28;19928;-76
2022/05/10 00:13:05;;;;;;;;;;;;;;;14.16;100.00;101832.09;5070638;28;19917;-75
2022/05/10 00:15:30;;;;;;;;;;;;;;;14.08;100.00;101827.38;5053198;28;19924;-76
2022/05/10 00:17:56;;;;;;;;;;;;;;;14.02;100.00;101820.09;5071159;28;20023;-76
2022/05/10 00:20:22;;;;;;;;;;;;;;;14.05;100.00;101819.31;5074265;28;19917;-77
2022/05/10 00:22:48;;;;;;;;;;;;;;;14.01;100.00;101818.28;5075830;28;19963;-75
2022/05/10 00:25:15;;;;;;;;;;;;;;;14.04;100.00;101812.22;5057765;28;19964;-78
2022/05/10 00:27:40;;;;;;;;;;;;;;;14.03;100.00;101810.41;5074397;28;20372;-77
2022/05/10 00:30:06;;;;;;;;;;;;;;;14.05;100.00;101819.31;5074862;28;19971;-77
2022/05/10 00:32:32;;;;;;;;;;;;;;;14.10;100.00;101823.03;5073789;28;20465;-78
2022/05/10 00:34:58;;;;;;;;;;;;;;;14.11;100.00;101815.16;5090151;28;19970;-77
2022/05/10 00:37:24;;;;;;;;;;;;;;;14.08;100.00;101819.44;5077822;28;19916;-77
2022/05/10 00:39:49;;;;;;;;;;;;;;;14.04;100.00;101818.41;5076583;28;20019;-75
2022/05/10 00:42:47;;;;;;;;;;;;;;;14.03;100.00;101813.06;5076665;28;19922;-76
2022/05/10 00:45:15;;;;;;;;;;;;;;;14.04;100.00;101817.50;5038731;28;20403;-75
2022/05/10 00:47:44;;;;;;;;;;;;;;;14.08;100.00;101819.44;5075831;28;19970;-77
2022/05/10 00:50:27;;;;;;;;;;;;;;;14.09;100.00;101821.22;5094761;28;19986;-77
2022/05/10 00:52:58;;;;;;;;;;;;;;;14.13;100.00;101824.03;5075790;28;19916;-76
2022/05/10 00:55:27;;;;;;;;;;;;;;;14.17;100.00;101809.19;5076586;28;19916;-76
2022/05/10 00:57:56;;;;;;;;;;;;;;;14.16;100.00;101799.44;5076250;28;20425;-76
2022/05/10 01:00:26;;;;;;;;;;;;;;;14.16;100.00;101795.03;5076156;28;19916;-76
2022/05/10 01:02:55;;;;;;;;;;;;;;;14.13;100.00;101788.72;5084099;28;19920;-76
2022/05/10 01:05:36;;;;;;;;;;;;;;;14.11;100.00;101795.72;5073364;28;19927;-78
2022/05/10 01:08:07;;;;;;;;;;;;;;;14.04;100.00;101797.22;5056079;28;19921;-76
2022/05/10 01:10:35;;;;;;;;;;;;;;;14.03;100.00;101791.88;5074166;28;19948;-76
2022/05/10 01:13:13;;;;;;;;;;;;;;;14.07;100.00;101791.16;5056735;28;19917;-77
2022/05/10 01:15:40;;;;;;;;;;;;;;;14.04;100.00;101783.97;5056260;28;20284;-77
2022/05/10 01:18:05;;;;;;;;;;;;;;;14.05;100.00;101784.91;5057015;28;19986;-77
2022/05/10 01:20:35;;;;;;;;;;;;;;;14.06;100.00;101784.97;5056512;28;20481;-78
2022/05/10 01:23:01;;;;;;;;;;;;;;;14.05;100.00;101782.25;5056487;28;20250;-78
2022/05/10 01:25:42;;;;;;;;;;;;;;;14.04;100.00;101783.09;5073472;28;19974;-78
2022/05/10 01:28:13;;;;;;;;;;;;;;;14.05;100.00;101771.66;5055383;28;20292;-76
2022/05/10 01:30:38;;;;;;;;;;;;;;;14.09;100.00;101776.19;5073356;28;20010;-75
2022/05/10 01:36:01;;;;;;;;;;;;;;;14.05;100.00;101767.25;5093624;28;19965;-75
2022/05/10 01:38:45;;;;;;;;;;;;;;;14.10;100.00;101767.41;5075797;28;19916;-75
2022/05/10 01:41:19;;;;;;;;;;;;;;;14.11;100.00;101769.22;5093298;28;20637;-75
2022/05/10 01:43:51;;;;;;;;;;;;;;;14.15;100.00;101764.09;5075373;28;19916;-77
2022/05/10 01:46:23;;;;;;;;;;;;;;;14.15;100.00;101765.84;5059548;28;20015;-77
2022/05/10 01:48:50;;;;;;;;;;;;;;;14.15;100.00;101758.81;5075422;28;19911;-78
2022/05/10 01:51:21;;;;;;;;;;;;;;;14.11;100.00;101748.03;5076585;28;20101;-78
2022/05/10 01:53:51;;;;;;;;;;;;;;;14.14;100.00;101753.44;5076329;28;19912;-77
2022/05/10 01:56:22;;;;;;;;;;;;;;;14.14;100.00;101742.84;5076534;28;19922;-78
2022/05/10 01:58:47;;;;;;;;;;;;;;;14.19;100.00;101749.22;5075854;28;19912;-78
2022/05/10 02:01:12;;;;;;;;;;;;;;;14.23;100.00;101745.84;5071392;28;19923;-78
2022/05/10 02:03:52;;;;;;;;;;;;;;;14.26;100.00;101745.94;5071651;28;20461;-78
2022/05/10 02:06:38;;;;;;;;;;;;;;;14.26;100.00;101738.00;5056573;28;19927;-77
2022/05/10 02:09:13;;;;;;;;;;;;;;;14.29;100.00;101730.16;5061817;28;20014;-77
2022/05/10 02:11:44;;;;;;;;;;;;;;;14.30;100.00;101731.03;5053679;28;19920;-77
2022/05/10 02:14:14;;;;;;;;;;;;;;;14.30;100.00;101721.34;5054834;28;20007;-77
2022/05/10 02:16:42;;;;;;;;;;;;;;;14.29;100.00;101732.81;5071723;28;20002;-76
2022/05/10 02:19:10;;;;;;;;;;;;;;;14.27;100.00;101715.94;5072811;28;20372;-77
2022/05/10 02:21:42;;;;;;;;;;;;;;;14.34;100.00;101717.03;5054749;28;19916;-76
2022/05/10 02:24:18;;;;;;;;;;;;;;;14.38;100.00;101723.38;5054566;28;19920;-75
2022/05/10 02:26:44;;;;;;;;;;;;;;;14.40;100.00;101716.34;5072886;28;19916;-77
2022/05/10 02:29:09;;;;;;;;;;;;;;;14.40;100.00;101706.66;5072288;28;19917;-78
2022/05/10 02:34:52;;;;;;;;;;;;;;;14.35;100.00;101697.66;5050662;28;19973;-78
2022/05/10 02:37:17;;;;;;;;;;;;;;;14.36;100.00;101694.16;5075679;28;19922;-76
2022/05/10 02:39:43;;;;;;;;;;;;;;;14.34;100.00;101686.16;5058094;28;19920;-78
2022/05/10 02:42:09;;;;;;;;;;;;;;;14.40;100.00;101684.56;5093242;28;19917;-77
2022/05/10 02:44:36;;;;;;;;;;;;;;;14.39;100.00;101694.28;5075505;28;19920;-77
2022/05/10 02:47:02;;;;;;;;;;;;;;;14.42;100.00;101688.16;5093513;28;19916;-77
2022/05/10 02:49:27;;;;;;;;;;;;;;;14.41;100.00;101696.97;5075673;28;20294;-78
2022/05/10 02:51:52;;;;;;;;;;;;;;;14.39;100.00;101690.69;5074665;28;19922;-78
2022/05/10 02:54:19;;;;;;;;;;;;;;;14.39;100.00;101685.41;5093387;28;19924;-77
2022/05/10 02:56:45;;;;;;;;;;;;;;;14.38;100.00;101681.84;5075057;28;19916;-77
2022/05/10 02:59:25;;;;;;;;;;;;;;;14.42;100.00;101686.44;5074927;28;19996;-77
2022/05/10 03:01:55;;;;;;;;;;;;;;;14.38;100.00;101670.38;5075092;28;19994;-78
2022/05/10 03:04:21;;;;;;;;;;;;;;;14.33;100.00;101667.56;5074439;28;19920;-77
2022/05/10 03:06:46;;;;;;;;;;;;;;;14.34;100.00;101664.03;5073590;28;20400;-79
2022/05/10 03:09:12;;;;;;;;;;;;;;;14.36;100.00;101663.25;5074683;28;19916;-78
2022/05/10 03:11:38;;;;;;;;;;;;;;;14.38;100.00;101655.38;5074602;28;19927;-74
2022/05/10 03:14:07;;;;;;;;;;;;;;;14.39;100.00;101650.94;5056133;28;19943;-79
2022/05/10 03:16:32;;;;;;;;;;;;;;;14.40;100.00;101653.66;5072911;28;20296;-76
2022/05/10 03:18:58;;;;;;;;;;;;;;;14.36;100.00;101657.97;5072995;28;19924;-76
2022/05/10 03:21:23;;;;;;;;;;;;;;;14.44;100.00;101658.22;5062486;28;20285;-77
2022/05/10 03:23:48;;;;;;;;;;;;;;;14.42;100.00;101645.75;5054363;28;20423;-76
2022/05/10 03:26:15;;;;;;;;;;;;;;;14.46;100.00;101650.31;5061492;28;19924;-76
2022/05/10 03:28:41;;;;;;;;;;;;;;;14.44;100.00;101650.28;5072547;28;19920;-76
2022/05/10 03:31:07;;;;;;;;;;;;;;;14.43;100.00;101650.22;5071286;28;19920;-77
2022/05/10 03:33:33;;;;;;;;;;;;;;;14.41;100.00;101649.28;5091200;28;19960;-75
2022/05/10 03:36:00;;;;;;;;;;;;;;;14.42;100.00;101649.31;5072219;28;20443;-76
2022/05/10 03:38:25;;;;;;;;;;;;;;;14.42;100.00;101643.09;5065105;28;20330;-75
2022/05/10 03:40:50;;;;;;;;;;;;;;;14.39;100.00;101646.56;5074687;28;19959;-76
2022/05/10 03:43:16;;;;;;;;;;;;;;;14.37;100.00;101640.31;5057109;28;19921;-77
2022/05/10 03:45:41;;;;;;;;;;;;;;;14.32;100.00;101640.16;5069813;28;19926;-76
2022/05/10 03:48:06;;;;;;;;;;;;;;;14.31;100.00;101637.44;5063487;28;19931;-76
2022/05/10 03:50:32;;;;;;;;;;;;;;;14.28;100.00;101630.31;5081430;28;19927;-75
2022/05/10 03:53:02;;;;;;;;;;;;;;;14.30;100.00;101633.91;5074711;28;19977;-77
2022/05/10 03:55:28;;;;;;;;;;;;;;;14.28;100.00;101627.69;5064122;28;20375;-76
2022/05/10 03:57:54;;;;;;;;;;;;;;;14.26;100.00;101618.78;5058361;28;19916;-77
2022/05/10 04:00:21;;;;;;;;;;;;;;;14.25;100.00;101619.63;5058438;28;19954;-76
2022/05/10 04:02:48;;;;;;;;;;;;;;;14.25;100.00;101626.69;5084258;28;19927;-76
2022/05/10 04:05:13;;;;;;;;;;;;;;;14.19;100.00;101615.00;5062887;28;19920;-75
2022/05/10 04:07:39;;;;;;;;;;;;;;;14.18;100.00;101615.88;5065960;28;19921;-77
2022/05/10 04:10:06;;;;;;;;;;;;;;;14.17;100.00;101618.47;5077315;28;20431;-76
2022/05/10 04:12:31;;;;;;;;;;;;;;;14.16;100.00;101616.66;5070133;28;19921;-74
2022/05/10 04:14:58;;;;;;;;;;;;;;;14.19;100.00;101620.31;5057576;28;19917;-76
2022/05/10 04:17:23;;;;;;;;;;;;;;;14.21;100.00;101617.72;5058564;28;20388;-75
2022/05/10 04:19:49;;;;;;;;;;;;;;;14.25;100.00;101613.44;5060431;28;20272;-76
2022/05/10 04:22:14;;;;;;;;;;;;;;;14.27;100.00;101612.63;5072628;28;20011;-77
2022/05/10 04:24:40;;;;;;;;;;;;;;;14.29;100.00;101617.97;5073464;28;20616;-74
2022/05/10 04:27:05;;;;;;;;;;;;;;;14.30;100.00;101607.41;5059362;28;19920;-76
2022/05/10 04:29:30;;;;;;;;;;;;;;;14.37;100.00;101611.16;5057269;28;19927;-77
2022/05/10 04:31:56;;;;;;;;;;;;;;;14.43;100.00;101608.72;5056116;28;20447;-78
2022/05/10 04:34:21;;;;;;;;;;;;;;;14.48;100.00;101617.72;5057061;28;20265;-77
2022/05/10 04:36:46;;;;;;;;;;;;;;;14.49;100.00;101606.25;5050452;28;20419;-77
2022/05/10 04:39:12;;;;;;;;;;;;;;;14.52;100.00;101606.34;5088672;28;19916;-77
2022/05/10 04:41:38;;;;;;;;;;;;;;;14.53;100.00;101613.47;5076741;28;19924;-78
2022/05/10 04:44:05;;;;;;;;;;;;;;;14.56;100.00;101607.38;5086964;28;19973;-77
2022/05/10 04:46:32;;;;;;;;;;;;;;;14.59;100.00;101607.47;5072871;28;19916;-77
2022/05/10 04:48:58;;;;;;;;;;;;;;;14.69;100.00;101598.97;5073711;28;19916;-77
2022/05/10 04:51:23;;;;;;;;;;;;;;;14.74;100.00;101606.19;5073251;28;19916;-77
2022/05/10 04:53:48;;;;;;;;;;;;;;;14.74;100.00;101599.13;5073886;28;20509;-76
2022/05/10 04:56:13;;;;;;;;;;;;;;;14.77;100.00;101603.63;5072977;28;20406;-76
2022/05/10 04:58:39;;;;;;;;;;;;;;;14.88;100.00;101599.53;5072095;28;19955;-77
2022/05/10 05:01:06;;;;;;;;;;;;;;;14.93;100.00;101597.94;5085313;28;19922;-75
2022/05/10 05:03:32;;;;;;;;;;;;;;;14.98;100.00;101606.94;5072016;28;20046;-77
2022/05/10 05:05:57;;;;;;;;;;;;;;;15.06;100.00;101604.50;5072084;28;19916;-78
2022/05/10 05:08:22;;;;;;;;;;;;;;;15.10;100.00;101600.19;5055635;28;19920;-77
2022/05/10 05:10:47;;;;;;;;;;;;;;;15.15;100.00;101607.44;5072280;28;19968;-78
2022/05/10 05:13:17;;;;;;;;;;;;;;;15.23;100.00;101605.91;5072958;28;20406;-75
2022/05/10 05:15:42;;;;;;;;;;;;;;;15.29;100.00;101605.19;5073130;28;20407;-78
2022/05/10 05:18:09;;;;;;;;;;;;;;;15.35;100.00;101610.66;5074313;28;19924;-75
2022/05/10 05:20:36;;;;;;;;;;;;;;;15.44;100.00;101599.38;5073895;28;19927;-77
2022/05/10 05:23:08;;;;;;;;;;;;;;;15.53;100.00;101606.72;5073104;28;19970;-77
2022/05/10 05:25:33;;;;;;;;;;;;;;;15.69;100.00;101611.59;5073483;28;20456;-80
2022/05/10 05:27:59;;;;;;;;;;;;;;;15.85;100.00;101614.69;5056246;28;20018;-78
2022/05/10 05:30:24;;;;;;;;;;;;;;;15.96;100.00;101614.13;5073272;28;20356;-79
2022/05/10 05:32:49;;;;;;;;;;;;;;;16.07;100.00;101618.81;5056054;28;19924;-77
2022/05/10 05:35:14;;;;;;;;;;;;;;;16.21;100.00;101625.38;5072917;28;19970;-77
2022/05/10 05:37:40;;;;;;;;;;;;;;;16.35;100.00;101627.50;5072379;28;20284;-75
2022/05/10 05:40:08;;;;;;;;;;;;;;;16.31;100.00;101626.50;5071827;28;19921;-76
2022/05/10 05:42:33;;;;;;;;;;;;;;;16.42;100.00;101624.09;5071551;28;20003;-78
2022/05/10 05:44:59;;;;;;;;;;;;;;;16.48;100.00;101627.81;5071910;28;20069;-79
2022/05/10 05:47:25;;;;;;;;;;;;;;;16.64;100.00;101630.81;5073136;28;19913;-79
2022/05/10 05:49:50;;;;;;;;;;;;;;;16.68;100.00;101624.72;5071190;28;19916;-78
2022/05/10 05:52:20;;;;;;;;;;;;;;;16.75;100.00;101634.66;5072069;28;19924;-79
2022/05/10 05:54:46;;;;;;;;;;;;;;;16.78;100.00;101629.41;5071107;28;19912;-79
2022/05/10 05:57:12;;;;;;;;;;;;;;;16.95;100.00;101634.22;5071924;28;19924;-79
2022/05/10 05:59:37;;;;;;;;;;;;;;;16.93;100.00;101636.84;5072614;28;20356;-78
2022/05/10 06:02:07;;;;;;;;;;;;;;;17.10;100.00;101631.00;5071143;28;19916;-81
2022/05/10 06:04:32;;;;;;;;;;;;;;;17.17;100.00;101622.31;5071418;28;19939;-80
2022/05/10 06:06:57;;;;;;;;;;;;;;;17.18;100.00;101619.66;5071890;28;19920;-81
2022/05/10 06:09:23;;;;;;;;;;;;;;;17.23;100.00;101615.34;5070762;28;19917;-81
2022/05/10 06:11:49;;;;;;;;;;;;;;;17.30;100.00;101611.03;5073046;28;20577;-77
2022/05/10 06:14:15;;;;;;;;;;;;;;;17.37;100.00;101609.38;5071959;28;19923;-82
2022/05/10 06:16:40;;;;;;;;;;;;;;;17.51;100.00;101599.91;5070113;28;19917;-80
2022/05/10 06:19:07;;;;;;;;;;;;;;;17.49;100.00;101604.28;5071072;28;19956;-78
2022/05/10 06:21:32;;;;;;;;;;;;;;;17.62;100.00;101616.09;5070399;28;19917;-80
2022/05/10 06:23:58;;;;;;;;;;;;;;;17.68;100.00;101609.97;5071385;28;19924;-75
2022/05/10 06:26:23;;;;;;;;;;;;;;;17.72;100.00;101612.72;5070064;28;19916;-76
2022/05/10 06:28:48;;;;;;;;;;;;;;;17.88;100.00;101613.97;5070615;28;19927;-79
2022/05/10 06:31:13;;;;;;;;;;;;;;;18.03;100.00;101618.66;5070602;28;20086;-80
2022/05/10 06:33:38;;;;;;;;;;;;;;;18.05;100.00;101621.34;5071271;28;19931;-76
2022/05/10 06:36:04;;;;;;;;;;;;;;;18.09;100.00;101613.44;5070693;28;20428;-73
2022/05/10 06:38:30;;;;;;;;;;;;;;;18.12;100.00;101604.59;5070334;28;19916;-72
2022/05/10 06:40:57;;;;;;;;;;;;;;;18.17;100.00;101608.22;5071703;28;19923;-73
2022/05/10 06:43:22;;;;;;;;;;;;;;;18.23;100.00;101597.66;5070387;28;19967;-74
2022/05/10 06:45:47;;;;;;;;;;;;;;;18.24;100.00;101596.81;5069382;28;20004;-76
2022/05/10 06:48:13;;;;;;;;;;;;;;;18.36;100.00;101603.19;5070487;28;19916;-74
2022/05/10 06:50:40;;;;;;;;;;;;;;;18.30;100.00;101596.91;5070241;28;19923;-76
2022/05/10 06:53:05;;;;;;;;;;;;;;;18.39;100.00;101595.25;5070114;28;19923;-77
2022/05/10 06:55:32;;;;;;;;;;;;;;;18.41;100.00;101588.16;5069995;28;20007;-76
2022/05/10 06:57:58;;;;;;;;;;;;;;;18.44;100.00;101578.47;5070369;28;19916;-77
2022/05/10 07:00:23;;;;;;;;;;;;;;;18.51;100.00;101583.88;5070247;28;19985;-78
2022/05/10 07:02:49;;;;;;;;;;;;;;;18.61;100.00;101585.78;5070215;28;19927;-81
2022/05/10 07:05:14;;;;;;;;;;;;;;;18.76;100.00;101580.69;5070002;28;20276;-73
2022/05/10 07:07:40;;;;;;;;;;;;;;;18.72;100.00;101578.88;5070210;28;19951;-76
2022/05/10 07:10:08;;;;;;;;;;;;;;;18.83;100.00;101569.22;5071448;28;19927;-79
2022/05/10 07:12:35;;;;;;;;;;;;;;;18.93;100.00;101572.94;5053659;28;19927;-76
2022/05/10 07:15:00;;;;;;;;;;;;;;;18.99;100.00;101574.81;5070624;28;19935;-76
2022/05/10 07:17:26;;;;;;;;;;;;;;;19.01;100.00;101576.59;5070483;28;20388;-78
2022/05/10 07:19:51;;;;;;;;;;;;;;;18.94;100.00;101574.75;5071103;28;19947;-79
2022/05/10 07:22:16;;;;;;;;;;;;;;;18.96;100.00;101577.44;5069908;28;20094;-80
2022/05/10 07:24:41;;;;;;;;;;;;;;;19.01;100.00;101568.59;5070283;28;19923;-75
2022/05/10 07:27:07;;;;;;;;;;;;;;;19.12;100.00;101579.41;5070029;28;19920;-82
2022/05/10 07:29:32;;;;;;;;;;;;;;;19.14;100.00;101566.06;5057702;28;19921;-77
2022/05/10 07:31:58;;;;;;;;;;;;;;;19.20;100.00;101571.47;5074628;28;19942;-75
2022/05/10 07:34:23;;;;;;;;;;;;;;;19.18;100.00;101570.56;5073938;28;19925;-76
2022/05/10 07:36:48;;;;;;;;;;;;;;;19.24;100.00;101572.44;5074559;28;20047;-77
2022/05/10 07:39:17;;;;;;;;;;;;;;;19.34;100.00;101571.63;5074752;28;19912;-77
2022/05/10 07:41:43;;;;;;;;;;;;;;;19.53;100.00;101575.44;5074852;28;20365;-78
2022/05/10 07:44:09;;;;;;;;;;;;;;;19.99;100.00;101575.88;5075922;28;19917;-78
2022/05/10 07:46:35;;;;;;;;;;;;;;;20.25;100.00;101569.88;5075164;28;20376;-80
2022/05/10 07:49:00;;;;;;;;;;;;;;;20.46;100.00;101569.09;5075784;28;20011;-77
2022/05/10 07:51:25;;;;;;;;;;;;;;;20.79;100.00;101573.81;5074593;28;19920;-81
2022/05/10 07:53:51;;;;;;;;;;;;;;;20.89;100.00;101577.41;5074845;28;19924;-77
2022/05/10 07:56:16;;;;;;;;;;;;;;;21.25;100.00;101575.75;5073566;28;19943;-77
2022/05/10 07:58:41;;;;;;;;;;;;;;;21.77;100.00;101574.16;5073003;28;20380;-76
2022/05/10 08:01:07;;;;;;;;;;;;;;;21.65;100.00;101575.03;5074835;28;19917;-79
2022/05/10 08:03:33;;;;;;;;;;;;;;;21.47;100.00;101576.75;5072490;28;19924;-77
2022/05/10 08:05:59;;;;;;;;;;;;;;;21.48;100.00;101578.50;5075116;28;19923;-79
2022/05/10 08:08:25;;;;;;;;;;;;;;;21.48;100.00;101583.88;5073096;28;19916;-80
2022/05/10 08:10:53;;;;;;;;;;;;;;;21.78;100.00;101576.84;5072668;28;19916;-73
2022/05/10 08:13:19;;;;;;;;;;;;;;;22.05;100.00;101569.69;5072937;28;19920;-74
2022/05/10 08:15:45;;;;;;;;;;;;;;;22.07;100.00;101578.63;5072507;28;19921;-78
2022/05/10 08:18:11;;;;;;;;;;;;;;;22.55;100.00;101582.19;5074113;28;19924;-74
2022/05/10 08:20:37;;;;;;;;;;;;;;;22.69;100.00;101582.16;5073054;28;19924;-74
2022/05/10 08:23:04;;;;;;;;;;;;;;;22.51;100.00;101577.75;5072350;28;19921;-77
2022/05/10 08:25:29;;;;;;;;;;;;;;;22.74;100.00;101582.13;5072534;28;19916;-74
2022/05/10 08:27:54;;;;;;;;;;;;;;;22.55;100.00;101576.81;5073842;28;19962;-82
2022/05/10 08:30:20;;;;;;;;;;;;;;;22.51;100.00;101575.06;5055409;28;19927;-78
2022/05/10 08:32:45;;;;;;;;;;;;;;;22.89;100.00;101582.09;5072457;28;20285;-74
2022/05/10 08:35:10;;;;;;;;;;;;;;;23.18;100.00;101580.22;5072436;28;19923;-74
2022/05/10 08:37:37;;;;;;;;;;;;;;;22.66;100.00;101578.59;5071593;28;19963;-74
2022/05/10 08:40:07;;;;;;;;;;;;;;;22.59;100.00;101573.25;5071844;28;19920;-74
2022/05/10 08:42:34;;;;;;;;;;;;;;;22.27;100.00;101575.94;5074195;28;19924;-73
2022/05/10 08:45:05;;;;;;;;;;;;;;;22.38;100.00;101574.16;5077959;28;19916;-82
2022/05/10 08:47:30;;;;;;;;;;;;;;;22.46;100.00;101571.47;5081679;28;19912;-81
2022/05/10 08:50:00;;;;;;;;;;;;;;;22.63;100.00;101579.47;5080390;28;19970;-80
2022/05/10 08:52:33;;;;;;;;;;;;;;;22.52;100.00;101576.81;5078760;28;19916;-77
2022/05/10 08:54:59;;;;;;;;;;;;;;;22.49;100.00;101575.94;5079588;28;19926;-81
2022/05/10 08:57:27;;;;;;;;;;;;;;;22.45;100.00;101579.50;5074230;28;19916;-83
2022/05/10 08:59:58;;;;;;;;;;;;;;;22.38;100.00;101578.66;5074323;28;19916;-83
2022/05/10 09:02:44;;;;;;;;;;;;;;;22.37;100.00;101585.81;5074398;28;20007;-83
2022/05/10 09:05:15;;;;;;;;;;;;;;;22.58;100.00;101576.81;5075163;28;19916;-76
2022/05/10 09:07:48;;;;;;;;;;;;;;;22.74;100.00;101574.97;5071387;28;19944;-76
2022/05/10 09:10:20;;;;;;;;;;;;;;;22.87;100.00;101569.56;5073558;28;19923;-74
2022/05/10 09:12:49;;;;;;;;;;;;;;;22.57;100.00;101564.28;5071143;28;19916;-73
2022/05/10 09:15:15;;;;;;;;;;;;;;;22.85;100.00;101568.69;5071961;28;20372;-73
2022/05/10 09:17:40;;;;;;;;;;;;;;;23.00;100.00;101576.69;5071384;28;19917;-73
2022/05/10 09:20:06;;;;;;;;;;;;;;;22.91;100.00;101576.72;5071955;28;19923;-74
2022/05/10 09:22:51;;;;;;;;;;;;;;;22.90;100.00;101583.88;5071460;28;19916;-78
2022/05/10 09:25:32;;;;;;;;;;;;;;;22.69;100.00;101587.53;5071792;28;20035;-73
2022/05/10 09:27:58;;;;;;;;;;;;;;;22.36;100.00;101584.00;5072399;28;19962;-73
2022/05/10 09:30:25;;;;;;;;;;;;;;;22.39;100.00;101575.06;5072553;28;19956;-76
2022/05/10 09:35:47;;;;;;;;;;;;;;;22.67;100.00;101586.66;5072806;28;20579;-74
2022/05/10 09:38:16;;;;;;;;;;;;;;;22.66;100.00;101575.91;5072411;28;19946;-73
2022/05/10 09:40:41;;;;;;;;;;;;;;;22.88;100.00;101572.25;5070597;28;19924;-72
2022/05/10 09:43:25;;;;;;;;;;;;;;;23.25;100.00;101571.22;5071089;28;19916;-72
2022/05/10 09:46:09;;;;;;;;;;;;;;;23.18;100.00;101573.06;5070990;28;19943;-73
2022/05/10 09:48:35;;;;;;;;;;;;;;;23.29;100.00;101581.97;5072292;28;20345;-77
2022/05/10 09:51:17;;;;;;;;;;;;;;;23.32;100.00;101581.06;5072364;28;19917;-78
2022/05/10 09:53:42;;;;;;;;;;;;;;;23.75;100.00;101580.78;5071110;28;19917;-73
2022/05/10 09:56:07;;;;;;;;;;;;;;;24.05;100.00;101581.50;5072203;28;20011;-82
2022/05/10 09:58:37;;;;;;;;;;;;;;;23.91;100.00;101578.91;5073806;28;20353;-80
2022/05/10 10:01:04;;;;;;;;;;;;;;;24.22;100.00;101581.31;5072557;28;19970;-82
2022/05/10 10:03:32;;;;;;;;;;;;;;;24.54;100.00;101582.81;5072777;28;20577;-76
2022/05/10 10:06:16;;;;;;;;;;;;;;;24.62;100.00;101578.25;5074052;28;19920;-76
2022/05/10 10:08:46;;;;;;;;;;;;;;;23.98;100.00;101580.63;5071167;28;19917;-79
2022/05/10 10:11:30;;;;;;;;;;;;;;;23.77;100.00;101586.13;5054876;28;19992;-73
2022/05/10 10:14:00;;;;;;;;;;;;;;;23.64;100.00;101586.22;5070943;28;19928;-80
2022/05/10 10:16:30;;;;;;;;;;;;;;;23.39;100.00;101582.78;5071063;28;19916;-78
2022/05/10 10:18:59;;;;;;;;;;;;;;;23.54;100.00;101589.88;5072738;28;20375;-74
2022/05/10 10:21:44;;;;;;;;;;;;;;;23.63;100.00;101581.75;5071803;28;19924;-72
2022/05/10 10:24:12;;;;;;;;;;;;;;;23.93;100.00;101581.59;5069833;28;19935;-73
2022/05/10 10:26:42;;;;;;;;;;;;;;;24.46;100.00;101587.41;5070447;28;19916;-73
2022/05/10 10:29:17;;;;;;;;;;;;;;;24.26;100.00;101585.78;5070282;28;19961;-74
2022/05/10 10:31:45;;;;;;;;;;;;;;;24.17;100.00;101580.47;5070677;28;19920;-74
2022/05/10 10:34:10;;;;;;;;;;;;;;;24.01;100.00;101577.91;5071416;28;19921;-74
2022/05/10 10:36:39;;;;;;;;;;;;;;;24.52;100.00;101582.81;5069788;28;19989;-72
2022/05/10 10:39:13;;;;;;;;;;;;;;;24.84;100.00;101586.97;5070696;28;19916;-82
2022/05/10 10:41:53;;;;;;;;;;;;;;;24.94;100.00;101577.00;5070052;28;19960;-73
2022/05/10 10:44:21;;;;;;;;;;;;;;;24.45;100.00;101580.22;5069454;28;19963;-73
2022/05/10 10:46:53;;;;;;;;;;;;;;;24.54;100.00;101585.50;5069675;28;19923;-73
2022/05/10 10:49:21;;;;;;;;;;;;;;;24.28;100.00;101578.56;5069805;28;19969;-73
2022/05/10 10:51:46;;;;;;;;;;;;;;;23.77;100.00;101573.59;5069471;28;20357;-74
2022/05/10 10:54:17;;;;;;;;;;;;;;;23.51;100.00;101571.09;5070135;28;19917;-74
2022/05/10 10:56:58;;;;;;;;;;;;;;;23.41;100.00;101570.22;5072182;28;19971;-80
2022/05/10 10:59:23;;;;;;;;;;;;;;;23.53;100.00;101568.41;5071841;28;19924;-82
2022/05/10 11:02:03;;;;;;;;;;;;;;;23.40;100.00;101564.88;5073306;28;20469;-79
2022/05/10 11:04:36;;;;;;;;;;;;;;;23.71;100.00;101567.34;5071328;28;19920;-79
2022/05/10 11:07:08;;;;;;;;;;;;;;;23.92;100.00;101572.59;5071218;28;19917;-80
2022/05/10 11:09:43;;;;;;;;;;;;;;;23.87;100.00;101569.06;5071876;28;19916;-79
2022/05/10 11:12:14;;;;;;;;;;;;;;;23.99;100.00;101560.91;5070272;28;20563;-78
2022/05/10 11:14:41;;;;;;;;;;;;;;;24.02;100.00;101568.06;5071491;28;19951;-81
2022/05/10 11:17:22;;;;;;;;;;;;;;;24.18;100.00;101575.09;5071018;28;19924;-81
2022/05/10 11:19:48;;;;;;;;;;;;;;;24.07;100.00;101574.28;5070717;28;19927;-73
2022/05/10 11:22:31;;;;;;;;;;;;;;;24.05;100.00;101577.88;5071885;28;19916;-82
2022/05/10 11:25:29;;;;;;;;;;;;;;;24.07;100.00;101576.09;5071987;28;19977;-74
2022/05/10 11:28:01;;;;;;;;;;;;;;;23.76;100.00;101587.06;5019696;28;19943;-76
2022/05/10 11:30:32;;;;;;;;;;;;;;;23.42;100.00;101574.72;5070928;28;20003;-73
2022/05/10 11:33:00;;;;;;;;;;;;;;;23.29;100.00;101571.22;5068698;28;19921;-73
2022/05/10 11:35:35;;;;;;;;;;;;;;;23.76;100.00;101571.81;5070004;28;19939;-72
2022/05/10 11:38:00;;;;;;;;;;;;;;;24.04;100.00;101563.56;5071014;28;19916;-73
2022/05/10 11:40:36;;;;;;;;;;;;;;;24.00;100.00;101573.47;5069332;28;19923;-72
2022/05/10 11:43:14;;;;;;;;;;;;;;;23.73;100.00;101565.56;5069483;28;19917;-72
2022/05/10 11:45:48;;;;;;;;;;;;;;;23.60;100.00;101554.91;5070937;28;20022;-73
2022/05/10 11:48:26;;;;;;;;;;;;;;;23.94;100.00;101565.44;5069805;28;20365;-73
2022/05/10 11:53:56;;;;;;;;;;;;;;;23.77;100.00;101546.72;5070594;28;19939;-76
2022/05/10 11:56:22;;;;;;;;;;;;;;;23.87;100.00;101544.88;5069792;28;19962;-76
2022/05/10 11:58:48;;;;;;;;;;;;;;;24.15;100.00;101550.00;5069864;28;19981;-79
2022/05/10 12:01:34;;;;;;;;;;;;;;;24.05;100.00;101554.59;5070554;28;19920;-75
2022/05/10 12:03:59;;;;;;;;;;;;;;;24.68;100.00;101551.28;5069133;28;19970;-72
2022/05/10 12:06:24;;;;;;;;;;;;;;;24.33;100.00;101551.63;5070333;28;19924;-72
2022/05/10 12:08:56;;;;;;;;;;;;;;;24.18;100.00;101556.25;5069682;28;19916;-75
2022/05/10 12:11:43;;;;;;;;;;;;;;;24.33;100.00;101560.59;5068818;28;19916;-73
2022/05/10 12:22:50;;;;;;;;;;;;;;;24.17;100.00;101556.25;5073472;28;20399;-75
2022/05/10 12:25:35;;;;;;;;;;;;;;;23.99;100.00;101547.47;5072986;28;19916;-83
2022/05/10 12:28:01;;;;;;;;;;;;;;;23.82;100.00;101538.63;5073325;28;19916;-81
2022/05/10 12:30:32;;;;;;;;;;;;;;;23.82;100.00;101539.50;5074552;28;20007;-86
2022/05/10 12:32:58;;;;;;;;;;;;;;;23.30;100.00;101539.84;5074644;28;19919;-82
2022/05/10 12:35:30;;;;;;;;;;;;;;;23.21;100.00;101543.50;5078533;28;19920;-82
2022/05/10 12:37:58;;;;;;;;;;;;;;;23.45;100.00;101539.75;5076153;28;20234;-83
2022/05/10 12:40:34;;;;;;;;;;;;;;;23.43;100.00;101536.19;5079584;28;19916;-85
2022/05/10 12:43:20;;;;;;;;;;;;;;;23.42;100.00;101539.78;5075188;28;19924;-86
2022/05/10 12:46:02;;;;;;;;;;;;;;;23.17;100.00;101541.72;5073174;28;20057;-77
2022/05/10 12:48:55;;;;;;;;;;;;;;;23.17;100.00;101541.72;5072384;28;19917;-74
2022/05/10 12:51:43;;;;;;;;;;;;;;;22.91;100.00;101531.06;5072431;28;19928;-76
2022/05/10 12:54:14;;;;;;;;;;;;;;;22.78;100.00;101532.91;5073879;28;19924;-75
2022/05/10 12:56:42;;;;;;;;;;;;;;;22.74;100.00;101536.50;5073681;28;19916;-76